Accueil
METAR-TAF:

METAR-TAF

Aéroports :

Sapporo, Japon

latitude: 43-07N, longitude: 141-23E, altitude: 8 m

Observation

Le bulletin a été fait il y a 23 minutes, à 02:48 UTC
Vent 8 kt de nord/nord-ouest
Température 14°C
Humidité 67%
Pression 1012 hPa
Visibilité 10 km ou plus
Quelques nuages à une hauteur de 1500 ft
Nuages épars à une hauteur de 3000 ft

METAR: RJCO 270248Z 34008KT 9999 FEW015 SCT030 14/08 Q1012 RMK 1ST015 3SC030 A2991

Heure: 12:11 (03:11 UTC)


TAF: absent

Observations et prévisions météorologiques de plus de 4000 aéroports (messages METAR et TAF).

Les stations disponibles sont représentées par des disques jaunes et rouges sur la carte.

Passer la souris dessus pour voir le nom de la station.

Cliquer dessus pour voir les observations et prévisions météorologiques.

Pour changer de carte: cliquez sur les boutons verts avec une croix noire pour zoomer, sur le bouton vert avec un tiret pour effectuer un zoom arrière, ou sur les flèches vertes pour les cartes adjacentes.


METAR-TAF: